This is the latest recevied weather packets stored in our database for station/object IU1JVO-13. If no packets are shown the sender has not sent any weather packets the latest 10 day(s).
| Time | Temp. | Humidity | Pressure | Rain* | Wind** | Luminosity | Snow |
|---|---|---|---|---|---|---|---|
| 1788485186 | 20.56° C | 50% | 1023.4 hPa | 0 mm | - | - | - |
| 1788484586 | 21.11° C | 48% | 1023.5 hPa | 0 mm | - | - | - |
| 1788483984 | 21.11° C | 47% | 1023.7 hPa | 0 mm | - | - | - |
| 1788481581 | 21.11° C | 47% | 1023.7 hPa | 0 mm | - | - | - |
| 1788480983 | 21.11° C | 49% | 1023.7 hPa | 0 mm | - | - | - |
| 1788479780 | 21.67° C | 47% | 1023.7 hPa | 0 mm | - | - | - |
| 1788478578 | 22.78° C | 42% | 1023.8 hPa | 0 mm | - | - | - |
| 1788474972 | 22.78° C | 42% | 1023.8 hPa | 0 mm | - | - | - |
| 1788470768 | 23.89° C | 43% | 1023.9 hPa | 0 mm | - | - | - |
| 1788470168 | 23.89° C | 44% | 1023.9 hPa | 0 mm | - | - | - |
| 1788468970 | 23.89° C | 49% | 1023.8 hPa | 0 mm | - | - | - |
| 1788468370 | 23.89° C | 47% | 1023.9 hPa | 0 mm | - | - | - |
| 1788467852 | 24.44° C | 47% | 1023.9 hPa | 0 mm | - | - | - |
| 1788467167 | 24.44° C | 48% | 1023.9 hPa | 0 mm | - | - | - |
| 1788465967 | 24.44° C | 48% | 1023.9 hPa | 0 mm | - | - | - |
| 1788463567 | 25° C | 50% | 1023.7 hPa | 0 mm | - | - | - |
| 1788449767 | 31.11° C | 38% | 1022.9 hPa | 0 mm | - | - | - |
| 1788444967 | 31.67° C | 38% | 1023 hPa | 0 mm | - | - | - |
| 1788441967 | 31.11° C | 37% | 1023 hPa | 0 mm | - | - | - |
| 1788441367 | 31.67° C | 37% | 1022.9 hPa | 0 mm | - | - | - |
| 1788440769 | 31.11° C | 37% | 1023.1 hPa | 0 mm | - | - | - |
| 1788438367 | 31.11° C | 34% | 1023 hPa | 0 mm | - | - | - |
| 1788434769 | 29.44° C | 33% | 1023 hPa | 0 mm | - | - | - |
| 1788434167 | 28.89° C | 36% | 1023 hPa | 0 mm | - | - | - |
| 1788433566 | 28.89° C | 38% | 1023.1 hPa | 0 mm | - | - | - |
* Rain latest hour (hover to see other rain measurements)
** Current wind speed in m/s (hover to see current wind gust speed)